Baltic Advance — C4FU2 — position and weather

sailwx.info

Track history (hours):
 
Tides and Currents Weather Stations Pressure Air Temp Water Temp Dewpoint Dewpoint Depression Visibility Wind Speed Wind Dir Waves Ship Positions

Baltic Advance

Last reported at 2018-Jun-24 19:49 UTC. Time now 2018-Jun-24 20:07 UTC.
Position N 60°20' E 028°42'.

Length 181 m; draft 7.6 m.

Type: Ship. MMSI: 212182000.

Date/timePositionNaut miles runAvg speedWind from/ knotsBaromVisibWave heightAir tempDewpointWater temp
2018-Jun-24 19:49N 60°20' E 028°42'0 0.0
2018-Jun-24 19:24N 60°20' E 028°42'0 0.0
2018-Jun-24 18:51N 60°20' E 028°42'0 0.0
2018-Jun-24 18:30N 60°20' E 028°42'0 0.0
2018-Jun-24 17:49N 60°20' E 028°42'0 0.0
2018-Jun-24 17:28N 60°20' E 028°42'0 0.0
2018-Jun-24 16:57N 60°20' E 028°42'0 0.0
2018-Jun-24 16:26N 60°20' E 028°42'0 0.0
2018-Jun-24 16:00N 60°20' E 028°42'0 0.0
2018-Jun-24 15:29N 60°20' E 028°42'0 0.0
2018-Jun-24 14:28N 60°20' E 028°42'0 0.0
2018-Jun-24 13:58N 60°20' E 028°42'0 0.0
2018-Jun-24 13:26N 60°20' E 028°42'0 0.0
2018-Jun-24 12:52N 60°20' E 028°42'0 0.0
2018-Jun-24 12:19N 60°20' E 028°42'0 0.0
2018-Jun-24 11:58N 60°20' E 028°42'0 0.0
2018-Jun-24 11:28N 60°20' E 028°42'0 0.0
2018-Jun-24 10:58N 60°20' E 028°42'0 0.0
2018-Jun-24 10:28N 60°20' E 028°42'0 0.0
2018-Jun-24 10:00N 60°20' E 028°42'0 0.0
2018-Jun-24 09:29N 60°20' E 028°42'0 0.0
2018-Jun-24 09:00N 60°20' E 028°42'0 0.0
2018-Jun-24 08:24N 60°20' E 028°42'0 0.0
2018-Jun-24 07:57N 60°20' E 028°42'0 0.0
2018-Jun-24 07:29N 60°20' E 028°42'0 0.0
2018-Jun-24 06:59N 60°20' E 028°42'0 0.0
2018-Jun-24 06:26N 60°20' E 028°42'0 0.0
2018-Jun-24 05:54N 60°20' E 028°42'0 0.0
2018-Jun-24 05:30N 60°20' E 028°42'0 0.0
2018-Jun-24 04:58N 60°20' E 028°42'0 0.0
2018-Jun-24 04:25N 60°20' E 028°42'0 0.0
2018-Jun-24 03:58N 60°20' E 028°42'0 0.0
2018-Jun-24 03:22N 60°20' E 028°42'0 0.0
2018-Jun-24 03:01N 60°20' E 028°42'0 0.0
2018-Jun-24 02:30N 60°20' E 028°42'0 0.0
2018-Jun-24 02:00N 60°20' E 028°42'0 0.0
2018-Jun-24 01:30N 60°20' E 028°42'0 0.0
2018-Jun-24 00:56N 60°20' E 028°42'0 0.0
2018-Jun-24 00:25N 60°20' E 028°42'0 0.0
2018-Jun-23 23:59N 60°20' E 028°42'0 0.0
2018-Jun-23 23:29N 60°20' E 028°42'0 0.0
2018-Jun-23 23:00N 60°20' E 028°42'0 0.1
2018-Jun-23 22:30N 60°20' E 028°42'1 2.1
2018-Jun-23 22:00N 60°19' E 028°42'5 9.5
2018-Jun-23 21:30N 60°15' E 028°48'5 9.6
2018-Jun-23 21:00N 60°11' E 028°44'4 7.4
2018-Jun-23 20:30N 60°09' E 028°37'4 7.7
2018-Jun-23 20:00N 60°07' E 028°30'510.6
2018-Jun-23 19:30N 60°05' E 028°21'611.3
2018-Jun-23 19:00N 60°08' E 028°10'510.5
2018-Jun-23 18:30N 60°09' E 028°00'510.7
2018-Jun-23 18:00N 60°11' E 027°50'510.0
2018-Jun-23 17:30N 60°09' E 027°40'510.8
2018-Jun-23 17:00N 60°06' E 027°31'611.2
2018-Jun-23 16:30N 60°03' E 027°21'612.4
2018-Jun-23 16:00N 60°00' E 027°11'813.9
2018-Jun-23 15:24N 59°59' E 026°54'3 8.3
2018-Jun-23 15:00N 59°59' E 026°48'814.3
2018-Jun-23 14:26N 59°58' E 026°32'610.2
2018-Jun-23 13:50N 59°57' E 026°20'412.0
2018-Jun-23 13:28N 59°56' E 026°12'711.6
2018-Jun-23 12:54N 59°54' E 025°59'1911.8
2018-Jun-23 11:18N 59°49' E 025°22'412.0
2018-Jun-23 11:00N 59°48' E 025°15'611.9
2018-Jun-23 10:30N 59°47' E 025°04'611.9
2018-Jun-23 10:00N 59°46' E 024°52'612.4
2018-Jun-23 09:31N 59°45' E 024°40'713.5
2018-Jun-23 09:01N 59°43' E 024°27'611.8
2018-Jun-23 08:30N 59°38' E 024°24'713.2
2018-Jun-23 08:00N 59°31' E 024°29'3 5.0
2018-Jun-23 07:30N 59°29' E 024°31'0 0.2
2018-Jun-23 06:59N 59°29' E 024°32'0 0.0
2018-Jun-23 06:29N 59°29' E 024°32'0 0.0
2018-Jun-23 05:59N 59°29' E 024°32'0 0.1
2018-Jun-23 05:29N 59°29' E 024°32'0 0.1
2018-Jun-23 05:01N 59°29' E 024°32'0 0.0
2018-Jun-23 04:28N 59°29' E 024°32'0 0.0
2018-Jun-23 03:58N 59°29' E 024°32'0 0.0
2018-Jun-23 03:28N 59°29' E 024°32'0 0.1
2018-Jun-23 02:58N 59°29' E 024°32'0 0.1
2018-Jun-23 02:28N 59°29' E 024°32'0 0.0
2018-Jun-23 02:00N 59°29' E 024°32'0 0.1
2018-Jun-23 01:30N 59°29' E 024°32'0 0.0
2018-Jun-23 00:57N 59°29' E 024°32'0 0.0
2018-Jun-23 00:30N 59°29' E 024°32'0 0.0
2018-Jun-22 23:59N 59°29' E 024°32'0 0.0
2018-Jun-22 23:28N 59°29' E 024°32'0 0.0
2018-Jun-22 22:58N 59°29' E 024°32'0 0.0
2018-Jun-22 22:30N 59°29' E 024°32'0 0.0
2018-Jun-22 22:00N 59°29' E 024°32'0 0.0
2018-Jun-22 21:27N 59°29' E 024°32'0 0.0
2018-Jun-22 20:58N 59°29' E 024°32'0 0.0
2018-Jun-22 20:26N 59°29' E 024°32'0 0.1
2018-Jun-22 19:59N 59°29' E 024°32'0 0.1
2018-Jun-22 19:31N 59°29' E 024°32'0 0.2
2018-Jun-22 19:00N 59°29' E 024°32'2 3.4
2018-Jun-22 18:28N 59°30' E 024°28'3 7.3
2018-Jun-22 18:00N 59°30' E 024°22'21 9.7
2018-Jun-22 15:51N 59°30' E 023°41'410.4
2018-Jun-22 15:29N 59°30' E 023°33'510.4
2018-Jun-22 15:00N 59°30' E 023°23'710.4
2018-Jun-22 14:21N 59°30' E 023°10'34010.6
2018-Jun-21 06:20N 55°37' E 015°29'512.8
2018-Jun-21 05:55N 55°35' E 015°20'612.9
2018-Jun-21 05:25N 55°33' E 015°09'712.8
2018-Jun-21 04:55N 55°30' E 014°59'512.9
2018-Jun-21 04:31N 55°28' E 014°51'612.9
2018-Jun-21 04:01N 55°24' E 014°41'612.8
2018-Jun-21 03:31N 55°20' E 014°34'613.0
2018-Jun-21 03:00N 55°15' E 014°27'612.9
2018-Jun-21 02:30N 55°10' E 014°20'2312.3
2018-Jun-21 00:36N 55°11' E 013°39'1712.8
2018-Jun-20 23:15N 55°12' E 013°09'412.8
2018-Jun-20 22:58N 55°13' E 013°02'612.8
2018-Jun-20 22:30N 55°15' E 012°53'612.6
2018-Jun-20 22:00N 55°17' E 012°42'4 8.7
2018-Jun-20 21:30N 55°21' E 012°38'611.9
2018-Jun-20 21:00N 55°26' E 012°40'5 9.8
2018-Jun-20 20:30N 55°31' E 012°44'4 8.2
2018-Jun-20 19:59N 55°34' E 012°49'4 9.2
2018-Jun-20 19:30N 55°37' E 012°54'611.2
2018-Jun-20 19:01N 55°43' E 012°53'713.7
2018-Jun-20 18:30N 55°49' E 012°46'713.5
2018-Jun-20 18:01N 55°55' E 012°44'713.7
2018-Jun-20 17:30N 56°02' E 012°39'713.3
2018-Jun-20 17:00N 56°07' E 012°31'431 8.8
2018-Jun-18 16:11N 51°52' E 002°41'313.3
2018-Jun-18 15:58N 51°49' E 002°39'813.7
2018-Jun-18 15:24N 51°43' E 002°32'513.4
2018-Jun-18 15:00N 51°38' E 002°26'712.9
2018-Jun-18 14:29N 51°33' E 002°20'612.4
2018-Jun-18 14:00N 51°29' E 002°13'611.8
2018-Jun-18 13:30N 51°24' E 002°08'611.3
2018-Jun-18 12:59N 51°18' E 002°07'5 9.7
2018-Jun-18 12:31N 51°14' E 002°04'510.2
2018-Jun-18 12:00N 51°12' E 001°57'5 9.8
2018-Jun-18 11:30N 51°09' E 001°50'5 9.3
2018-Jun-18 11:01N 51°07' E 001°43'4 8.8
2018-Jun-18 10:30N 51°04' E 001°39'5 9.2
2018-Jun-18 10:01N 51°00' E 001°34'5 9.8
2018-Jun-18 09:31N 50°57' E 001°29'5 9.4
2018-Jun-18 09:01N 50°53' E 001°26'5 9.9
2018-Jun-18 08:30N 50°48' E 001°24'6 9.1
2018-Jun-18 07:48N 50°42' E 001°21'25810.8
2018-Jun-17 07:58N 49°06' W 004°50'611.9
2018-Jun-17 07:29N 49°03' W 004°58'611.7
2018-Jun-17 07:00N 49°01' W 005°06'611.9
2018-Jun-17 06:30N 48°58' W 005°14'711.7
2018-Jun-17 05:56N 48°54' W 005°22'511.6
2018-Jun-17 05:31N 48°52' W 005°29'611.3
2018-Jun-17 05:01N 48°49' W 005°36'2110.7
2018-Jun-17 03:03N 48°31' W 005°52'1 9.8
2018-Jun-17 02:55N 48°30' W 005°53'6 9.7
2018-Jun-17 02:16N 48°24' W 005°58'3 9.7
2018-Jun-17 02:00N 48°22' W 005°60'18 8.9
2018-Jun-17 00:00N 48°05' W 006°08'  
Track history (hours):
 
Tides and Currents Weather Stations Pressure Air Temp Water Temp Dewpoint Dewpoint Depression Visibility Wind Speed Wind Dir Waves Ship Positions

Baltic Advance

Last reported at 2018-Jun-24 19:49 UTC. Time now 2018-Jun-24 20:07 UTC.
Position N 60°20' E 028°42'.

Length 181 m; draft 7.6 m.

Type: Ship. MMSI: 212182000.

Date/timePositionNaut miles runAvg speedWind from/ knotsBaromVisibWave heightAir tempDewpointWater temp
2018-Jun-24 19:49N 60°20' E 028°42'0 0.0
2018-Jun-24 19:24N 60°20' E 028°42'0 0.0
2018-Jun-24 18:51N 60°20' E 028°42'0 0.0
2018-Jun-24 18:30N 60°20' E 028°42'0 0.0
2018-Jun-24 17:49N 60°20' E 028°42'0 0.0
2018-Jun-24 17:28N 60°20' E 028°42'0 0.0
2018-Jun-24 16:57N 60°20' E 028°42'0 0.0
2018-Jun-24 16:26N 60°20' E 028°42'0 0.0
2018-Jun-24 16:00N 60°20' E 028°42'0 0.0
2018-Jun-24 15:29N 60°20' E 028°42'0 0.0
2018-Jun-24 14:28N 60°20' E 028°42'0 0.0
2018-Jun-24 13:58N 60°20' E 028°42'0 0.0
2018-Jun-24 13:26N 60°20' E 028°42'0 0.0
2018-Jun-24 12:52N 60°20' E 028°42'0 0.0
2018-Jun-24 12:19N 60°20' E 028°42'0 0.0
2018-Jun-24 11:58N 60°20' E 028°42'0 0.0
2018-Jun-24 11:28N 60°20' E 028°42'0 0.0
2018-Jun-24 10:58N 60°20' E 028°42'0 0.0
2018-Jun-24 10:28N 60°20' E 028°42'0 0.0
2018-Jun-24 10:00N 60°20' E 028°42'0 0.0
2018-Jun-24 09:29N 60°20' E 028°42'0 0.0
2018-Jun-24 09:00N 60°20' E 028°42'0 0.0
2018-Jun-24 08:24N 60°20' E 028°42'0 0.0
2018-Jun-24 07:57N 60°20' E 028°42'0 0.0
2018-Jun-24 07:29N 60°20' E 028°42'0 0.0
2018-Jun-24 06:59N 60°20' E 028°42'0 0.0
2018-Jun-24 06:26N 60°20' E 028°42'0 0.0
2018-Jun-24 05:54N 60°20' E 028°42'0 0.0
2018-Jun-24 05:30N 60°20' E 028°42'0 0.0
2018-Jun-24 04:58N 60°20' E 028°42'0 0.0
2018-Jun-24 04:25N 60°20' E 028°42'0 0.0
2018-Jun-24 03:58N 60°20' E 028°42'0 0.0
2018-Jun-24 03:22N 60°20' E 028°42'0 0.0
2018-Jun-24 03:01N 60°20' E 028°42'0 0.0
2018-Jun-24 02:30N 60°20' E 028°42'0 0.0
2018-Jun-24 02:00N 60°20' E 028°42'0 0.0
2018-Jun-24 01:30N 60°20' E 028°42'0 0.0
2018-Jun-24 00:56N 60°20' E 028°42'0 0.0
2018-Jun-24 00:25N 60°20' E 028°42'0 0.0
2018-Jun-23 23:59N 60°20' E 028°42'0 0.0
2018-Jun-23 23:29N 60°20' E 028°42'0 0.0
2018-Jun-23 23:00N 60°20' E 028°42'0 0.1
2018-Jun-23 22:30N 60°20' E 028°42'1 2.1
2018-Jun-23 22:00N 60°19' E 028°42'5 9.5
2018-Jun-23 21:30N 60°15' E 028°48'5 9.6
2018-Jun-23 21:00N 60°11' E 028°44'4 7.4
2018-Jun-23 20:30N 60°09' E 028°37'4 7.7
2018-Jun-23 20:00N 60°07' E 028°30'510.6
2018-Jun-23 19:30N 60°05' E 028°21'611.3
2018-Jun-23 19:00N 60°08' E 028°10'510.5
2018-Jun-23 18:30N 60°09' E 028°00'510.7
2018-Jun-23 18:00N 60°11' E 027°50'510.0
2018-Jun-23 17:30N 60°09' E 027°40'510.8
2018-Jun-23 17:00N 60°06' E 027°31'611.2
2018-Jun-23 16:30N 60°03' E 027°21'612.4
2018-Jun-23 16:00N 60°00' E 027°11'813.9
2018-Jun-23 15:24N 59°59' E 026°54'3 8.3
2018-Jun-23 15:00N 59°59' E 026°48'814.3
2018-Jun-23 14:26N 59°58' E 026°32'610.2
2018-Jun-23 13:50N 59°57' E 026°20'412.0
2018-Jun-23 13:28N 59°56' E 026°12'711.6
2018-Jun-23 12:54N 59°54' E 025°59'1911.8
2018-Jun-23 11:18N 59°49' E 025°22'412.0
2018-Jun-23 11:00N 59°48' E 025°15'611.9
2018-Jun-23 10:30N 59°47' E 025°04'611.9
2018-Jun-23 10:00N 59°46' E 024°52'612.4
2018-Jun-23 09:31N 59°45' E 024°40'713.5
2018-Jun-23 09:01N 59°43' E 024°27'611.8
2018-Jun-23 08:30N 59°38' E 024°24'713.2
2018-Jun-23 08:00N 59°31' E 024°29'3 5.0
2018-Jun-23 07:30N 59°29' E 024°31'0 0.2
2018-Jun-23 06:59N 59°29' E 024°32'0 0.0
2018-Jun-23 06:29N 59°29' E 024°32'0 0.0
2018-Jun-23 05:59N 59°29' E 024°32'0 0.1
2018-Jun-23 05:29N 59°29' E 024°32'0 0.1
2018-Jun-23 05:01N 59°29' E 024°32'0 0.0
2018-Jun-23 04:28N 59°29' E 024°32'0 0.0
2018-Jun-23 03:58N 59°29' E 024°32'0 0.0
2018-Jun-23 03:28N 59°29' E 024°32'0 0.1
2018-Jun-23 02:58N 59°29' E 024°32'0 0.1
2018-Jun-23 02:28N 59°29' E 024°32'0 0.0
2018-Jun-23 02:00N 59°29' E 024°32'0 0.1
2018-Jun-23 01:30N 59°29' E 024°32'0 0.0
2018-Jun-23 00:57N 59°29' E 024°32'0 0.0
2018-Jun-23 00:30N 59°29' E 024°32'0 0.0
2018-Jun-22 23:59N 59°29' E 024°32'0 0.0
2018-Jun-22 23:28N 59°29' E 024°32'0 0.0
2018-Jun-22 22:58N 59°29' E 024°32'0 0.0
2018-Jun-22 22:30N 59°29' E 024°32'0 0.0
2018-Jun-22 22:00N 59°29' E 024°32'0 0.0
2018-Jun-22 21:27N 59°29' E 024°32'0 0.0
2018-Jun-22 20:58N 59°29' E 024°32'0 0.0
2018-Jun-22 20:26N 59°29' E 024°32'0 0.1
2018-Jun-22 19:59N 59°29' E 024°32'0 0.1
2018-Jun-22 19:31N 59°29' E 024°32'0 0.2
2018-Jun-22 19:00N 59°29' E 024°32'2 3.4
2018-Jun-22 18:28N 59°30' E 024°28'3 7.3
2018-Jun-22 18:00N 59°30' E 024°22'21 9.7
2018-Jun-22 15:51N 59°30' E 023°41'410.4
2018-Jun-22 15:29N 59°30' E 023°33'510.4
2018-Jun-22 15:00N 59°30' E 023°23'710.4
2018-Jun-22 14:21N 59°30' E 023°10'34010.6
2018-Jun-21 06:20N 55°37' E 015°29'512.8
2018-Jun-21 05:55N 55°35' E 015°20'612.9
2018-Jun-21 05:25N 55°33' E 015°09'712.8
2018-Jun-21 04:55N 55°30' E 014°59'512.9
2018-Jun-21 04:31N 55°28' E 014°51'612.9
2018-Jun-21 04:01N 55°24' E 014°41'612.8
2018-Jun-21 03:31N 55°20' E 014°34'613.0
2018-Jun-21 03:00N 55°15' E 014°27'612.9
2018-Jun-21 02:30N 55°10' E 014°20'2312.3
2018-Jun-21 00:36N 55°11' E 013°39'1712.8
2018-Jun-20 23:15N 55°12' E 013°09'412.8
2018-Jun-20 22:58N 55°13' E 013°02'612.8
2018-Jun-20 22:30N 55°15' E 012°53'612.6
2018-Jun-20 22:00N 55°17' E 012°42'4 8.7
2018-Jun-20 21:30N 55°21' E 012°38'611.9
2018-Jun-20 21:00N 55°26' E 012°40'5 9.8
2018-Jun-20 20:30N 55°31' E 012°44'4 8.2
2018-Jun-20 19:59N 55°34' E 012°49'4 9.2
2018-Jun-20 19:30N 55°37' E 012°54'611.2
2018-Jun-20 19:01N 55°43' E 012°53'713.7
2018-Jun-20 18:30N 55°49' E 012°46'713.5
2018-Jun-20 18:01N 55°55' E 012°44'713.7
2018-Jun-20 17:30N 56°02' E 012°39'713.3
2018-Jun-20 17:00N 56°07' E 012°31'431 8.8
2018-Jun-18 16:11N 51°52' E 002°41'313.3
2018-Jun-18 15:58N 51°49' E 002°39'813.7
2018-Jun-18 15:24N 51°43' E 002°32'513.4
2018-Jun-18 15:00N 51°38' E 002°26'712.9
2018-Jun-18 14:29N 51°33' E 002°20'612.4
2018-Jun-18 14:00N 51°29' E 002°13'611.8
2018-Jun-18 13:30N 51°24' E 002°08'611.3
2018-Jun-18 12:59N 51°18' E 002°07'5 9.7
2018-Jun-18 12:31N 51°14' E 002°04'510.2
2018-Jun-18 12:00N 51°12' E 001°57'5 9.8
2018-Jun-18 11:30N 51°09' E 001°50'5 9.3
2018-Jun-18 11:01N 51°07' E 001°43'4 8.8
2018-Jun-18 10:30N 51°04' E 001°39'5 9.2
2018-Jun-18 10:01N 51°00' E 001°34'5 9.8
2018-Jun-18 09:31N 50°57' E 001°29'5 9.4
2018-Jun-18 09:01N 50°53' E 001°26'5 9.9
2018-Jun-18 08:30N 50°48' E 001°24'6 9.1
2018-Jun-18 07:48N 50°42' E 001°21'25810.8
2018-Jun-17 07:58N 49°06' W 004°50'611.9
2018-Jun-17 07:29N 49°03' W 004°58'611.7
2018-Jun-17 07:00N 49°01' W 005°06'611.9
2018-Jun-17 06:30N 48°58' W 005°14'711.7
2018-Jun-17 05:56N 48°54' W 005°22'511.6
2018-Jun-17 05:31N 48°52' W 005°29'611.3
2018-Jun-17 05:01N 48°49' W 005°36'2110.7
2018-Jun-17 03:03N 48°31' W 005°52'1 9.8
2018-Jun-17 02:55N 48°30' W 005°53'6 9.7
2018-Jun-17 02:16N 48°24' W 005°58'3 9.7
2018-Jun-17 02:00N 48°22' W 005°60'18 8.9
2018-Jun-17 00:00N 48°05' W 006°08'  

Dump ship's entire track history